createdAt,value
2023-03-19T00:01:16.808Z,6.83
2023-03-19T00:03:49.844Z,6.10
2023-03-19T00:06:23.838Z,6.53
2023-03-19T00:08:56.874Z,6.03
2023-03-19T00:11:30.020Z,5.57
2023-03-19T00:14:03.286Z,6.30
2023-03-19T00:16:37.722Z,5.53
2023-03-19T00:19:10.902Z,6.13
2023-03-19T00:21:44.036Z,5.80
2023-03-19T00:24:17.528Z,5.50
2023-03-19T00:26:51.015Z,5.83
2023-03-19T00:29:24.357Z,7.30
2023-03-19T00:31:58.728Z,7.10
2023-03-19T00:34:31.830Z,5.43
2023-03-19T00:37:05.276Z,6.07
2023-03-19T00:39:38.519Z,7.13
2023-03-19T00:42:12.002Z,5.87
2023-03-19T00:44:45.096Z,6.23
2023-03-19T00:47:19.683Z,6.23
2023-03-19T00:49:52.717Z,5.97
2023-03-19T00:52:25.828Z,5.43
2023-03-19T00:54:58.879Z,6.40
2023-03-19T00:57:31.953Z,6.37
2023-03-19T01:00:06.370Z,6.30
2023-03-19T01:02:40.825Z,6.77
2023-03-19T01:05:13.998Z,5.90
2023-03-19T01:07:47.203Z,6.37
2023-03-19T01:10:20.598Z,5.17
2023-03-19T01:12:53.825Z,5.67
2023-03-19T01:15:26.920Z,6.00
2023-03-19T01:18:01.340Z,6.03
2023-03-19T01:20:34.603Z,5.47
2023-03-19T01:23:08.606Z,5.60
2023-03-19T01:25:41.673Z,5.60
2023-03-19T01:28:14.787Z,5.33
2023-03-19T01:30:48.055Z,5.47
2023-03-19T01:33:25.462Z,6.00
2023-03-19T01:35:59.588Z,5.83
2023-03-19T01:38:33.280Z,5.63
2023-03-19T01:41:07.554Z,5.70
2023-03-19T01:43:40.708Z,6.40
2023-03-19T01:46:24.308Z,7.50
2023-03-19T01:49:01.434Z,5.40
2023-03-19T01:51:41.035Z,6.00
2023-03-19T01:54:17.966Z,5.30
2023-03-19T01:56:54.759Z,5.60
2023-03-19T01:59:31.718Z,5.13
2023-03-19T02:02:11.054Z,5.50
2023-03-19T02:04:48.535Z,5.90
2023-03-19T02:07:22.457Z,6.23
2023-03-19T02:09:55.966Z,6.23
2023-03-19T02:12:29.332Z,5.77
2023-03-19T02:15:02.452Z,5.90
2023-03-19T02:17:35.952Z,7.43
2023-03-19T02:20:19.377Z,6.70
2023-03-19T02:23:04.146Z,5.07
2023-03-19T02:25:44.615Z,6.10
2023-03-19T02:28:22.276Z,5.80
2023-03-19T02:30:55.536Z,6.00
2023-03-19T02:33:28.741Z,5.67
2023-03-19T02:36:04.462Z,6.60
2023-03-19T02:38:38.924Z,5.53
2023-03-19T02:41:12.430Z,7.43
2023-03-19T02:43:47.002Z,5.30
2023-03-19T02:46:20.101Z,7.03
2023-03-19T02:48:53.715Z,6.40
2023-03-19T02:51:27.266Z,6.03
2023-03-19T02:54:00.940Z,5.60
2023-03-19T02:56:34.096Z,6.93
2023-03-19T02:59:09.454Z,6.37
2023-03-19T03:01:42.673Z,6.27
2023-03-19T03:04:16.738Z,6.43
2023-03-19T03:06:49.762Z,7.33
2023-03-19T03:09:22.811Z,7.17
2023-03-19T03:11:55.964Z,6.30
2023-03-19T03:14:30.715Z,7.03
2023-03-19T03:17:03.755Z,7.53
2023-03-19T03:19:37.435Z,7.00
2023-03-19T03:22:10.951Z,6.87
2023-03-19T03:24:44.175Z,6.47
2023-03-19T03:27:17.320Z,5.30
2023-03-19T03:29:52.140Z,6.40
2023-03-19T03:32:25.333Z,5.63
2023-03-19T03:34:58.467Z,6.63
2023-03-19T03:37:31.874Z,6.47
2023-03-19T03:40:09.020Z,6.87
2023-03-19T03:42:42.058Z,6.40
2023-03-19T03:45:16.700Z,6.77
2023-03-19T03:47:49.746Z,7.00
2023-03-19T03:50:22.785Z,6.73
2023-03-19T03:52:55.933Z,6.70
2023-03-19T03:55:29.239Z,6.70
2023-03-19T03:58:02.927Z,6.83
2023-03-19T04:00:37.414Z,6.67
2023-03-19T04:03:10.530Z,6.90
2023-03-19T04:05:44.548Z,7.00
2023-03-19T04:08:18.023Z,6.37
2023-03-19T04:10:51.180Z,6.60
2023-03-19T04:13:24.283Z,7.33
2023-03-19T04:15:58.653Z,6.43
2023-03-19T04:18:31.695Z,6.43
2023-03-19T04:21:05.622Z,7.57
2023-03-19T04:23:38.655Z,6.83
2023-03-19T04:26:12.258Z,6.50
2023-03-19T04:28:45.696Z,5.93
2023-03-19T04:31:20.129Z,6.10
2023-03-19T04:33:53.456Z,6.83
2023-03-19T04:36:26.583Z,8.13
2023-03-19T04:38:59.741Z,6.60
2023-03-19T04:41:33.151Z,8.30
2023-03-19T04:44:06.341Z,9.30
2023-03-19T04:46:40.817Z,11.63
2023-03-19T04:49:14.247Z,10.47
2023-03-19T04:51:47.391Z,9.97
2023-03-19T04:54:20.509Z,11.83
2023-03-19T04:56:53.978Z,10.60
2023-03-19T04:59:27.293Z,9.83
2023-03-19T05:02:01.667Z,9.57
2023-03-19T05:04:34.910Z,10.80
2023-03-19T05:07:08.429Z,9.23
2023-03-19T05:09:43.166Z,9.10
2023-03-19T05:12:16.249Z,10.70
2023-03-19T05:14:49.370Z,9.23
2023-03-19T05:17:23.721Z,10.93
2023-03-19T05:19:57.090Z,9.50
2023-03-19T05:22:30.110Z,9.93
2023-03-19T05:25:03.146Z,9.10
2023-03-19T05:27:36.234Z,9.30
2023-03-19T05:30:11.108Z,8.53
2023-03-19T05:32:47.085Z,8.63
2023-03-19T05:35:20.305Z,9.00
2023-03-19T05:37:53.396Z,11.27
2023-03-19T05:40:26.717Z,10.73
2023-03-19T05:42:59.785Z,11.13
2023-03-19T05:45:32.848Z,10.27
2023-03-19T05:48:09.003Z,10.63
2023-03-19T05:50:42.533Z,11.37
2023-03-19T05:53:15.679Z,10.27
2023-03-19T05:55:48.728Z,10.10
2023-03-19T05:58:21.968Z,10.20
2023-03-19T06:00:56.532Z,10.87
2023-03-19T06:03:30.937Z,10.30
2023-03-19T06:06:04.190Z,10.70
2023-03-19T06:08:37.461Z,10.90
2023-03-19T06:11:10.880Z,10.47
2023-03-19T06:13:44.404Z,11.07
2023-03-19T06:16:17.597Z,12.47
2023-03-19T06:18:52.020Z,11.87
2023-03-19T06:21:29.448Z,11.83
2023-03-19T06:24:02.475Z,11.17
2023-03-19T06:26:35.861Z,11.50
2023-03-19T06:29:08.993Z,11.23
2023-03-19T06:31:42.054Z,11.17
2023-03-19T06:34:16.588Z,12.23
2023-03-19T06:36:49.601Z,13.27
2023-03-19T06:39:22.947Z,12.07
2023-03-19T06:41:56.014Z,11.77
2023-03-19T06:44:29.136Z,12.60
2023-03-19T06:47:02.183Z,12.30
2023-03-19T06:49:36.553Z,10.43
2023-03-19T06:52:09.623Z,11.93
2023-03-19T06:54:42.670Z,11.53
2023-03-19T06:57:15.822Z,12.43
2023-03-19T06:59:48.894Z,11.67
2023-03-19T07:02:22.227Z,14.27
2023-03-19T07:04:56.613Z,13.03
2023-03-19T07:07:29.773Z,12.13
2023-03-19T07:10:02.949Z,11.13
2023-03-19T07:12:36.202Z,11.37
2023-03-19T07:15:10.023Z,11.00
2023-03-19T07:17:44.841Z,12.50
2023-03-19T07:20:19.705Z,12.17
2023-03-19T07:22:52.908Z,13.07
2023-03-19T07:25:26.035Z,11.67
2023-03-19T07:27:59.150Z,11.97
2023-03-19T07:30:32.996Z,14.03
2023-03-19T07:33:07.333Z,14.97
2023-03-19T07:35:42.067Z,14.23
2023-03-19T07:38:15.735Z,12.73
2023-03-19T07:41:01.470Z,12.57
2023-03-19T07:43:35.965Z,12.47
2023-03-19T07:46:09.052Z,11.77
2023-03-19T07:48:42.158Z,11.80
2023-03-19T07:51:16.550Z,11.83
2023-03-19T07:53:50.167Z,13.10
2023-03-19T07:56:23.296Z,12.23
2023-03-19T07:58:56.449Z,13.53
2023-03-19T08:01:29.477Z,13.13
2023-03-19T08:04:02.559Z,12.50
2023-03-19T08:06:38.460Z,13.13
2023-03-19T08:09:11.888Z,13.43
2023-03-19T08:11:44.884Z,12.27
2023-03-19T08:14:22.438Z,13.33
2023-03-19T08:16:55.572Z,12.20
2023-03-19T08:19:28.808Z,11.25
2023-03-19T08:22:03.286Z,11.48
2023-03-19T08:24:36.530Z,10.73
2023-03-19T08:27:10.128Z,8.85
2023-03-19T08:29:43.166Z,9.93
2023-03-19T08:32:16.335Z,10.15
2023-03-19T08:34:49.866Z,9.60
2023-03-19T08:37:24.326Z,9.60
2023-03-19T08:39:57.482Z,9.32
2023-03-19T08:42:30.628Z,9.60
2023-03-19T08:45:03.760Z,8.40
2023-03-19T08:47:36.985Z,8.48
2023-03-19T08:50:12.205Z,6.93
2023-03-19T08:52:46.802Z,6.65
2023-03-19T08:55:19.891Z,6.50
2023-03-19T08:57:52.985Z,6.53
2023-03-19T09:00:26.282Z,7.15
2023-03-19T09:02:59.378Z,6.47
2023-03-19T09:05:32.374Z,6.45
2023-03-19T09:08:07.577Z,6.30
2023-03-19T09:10:40.996Z,6.25
2023-03-19T09:13:14.012Z,7.35
2023-03-19T09:15:47.926Z,7.72
2023-03-19T09:18:23.990Z,7.10
2023-03-19T09:20:57.150Z,6.82
2023-03-19T09:23:31.531Z,7.30
2023-03-19T09:26:04.878Z,5.57
2023-03-19T09:28:38.070Z,5.13
2023-03-19T09:31:11.850Z,5.10
2023-03-19T09:33:45.044Z,5.85
2023-03-19T09:36:18.846Z,4.70
2023-03-19T09:38:53.397Z,5.13
2023-03-19T09:41:36.922Z,4.30
2023-03-19T09:44:14.585Z,4.35
2023-03-19T09:46:54.864Z,4.93
2023-03-19T09:49:32.504Z,3.95
2023-03-19T09:52:19.194Z,5.80
2023-03-19T09:54:56.636Z,5.03
2023-03-19T09:57:29.981Z,4.47
2023-03-19T10:00:06.744Z,4.47
2023-03-19T10:02:43.883Z,4.75
2023-03-19T10:05:25.490Z,3.88
2023-03-19T10:08:27.772Z,3.88
2023-03-19T10:11:31.731Z,3.80
2023-03-19T10:14:23.143Z,3.53
2023-03-19T10:17:00.327Z,3.30
2023-03-19T10:19:41.919Z,3.00
2023-03-19T10:22:20.628Z,3.10
2023-03-19T10:24:55.858Z,3.40
2023-03-19T10:27:30.505Z,2.75
2023-03-19T10:30:03.624Z,5.05
2023-03-19T10:32:43.033Z,2.95
2023-03-19T10:35:23.208Z,3.13
2023-03-19T10:37:56.221Z,4.55
2023-03-19T10:40:39.815Z,3.45
2023-03-19T10:43:21.564Z,3.40
2023-03-19T10:45:54.605Z,3.78
2023-03-19T10:48:29.176Z,3.40
2023-03-19T10:51:05.930Z,3.22
2023-03-19T10:53:41.752Z,3.28
2023-03-19T10:56:23.049Z,3.00
2023-03-19T10:59:06.879Z,3.30
2023-03-19T11:01:42.885Z,3.28
2023-03-19T11:04:20.891Z,2.83
2023-03-19T11:06:55.286Z,2.90
2023-03-19T11:09:35.774Z,3.20
2023-03-19T11:12:18.853Z,3.08
2023-03-19T11:14:55.409Z,4.13
2023-03-19T11:17:38.383Z,3.40
2023-03-19T11:20:24.676Z,3.38
2023-03-19T11:23:02.195Z,4.22
2023-03-19T11:25:40.105Z,3.92
2023-03-19T11:28:15.490Z,2.90
2023-03-19T11:30:58.306Z,2.88
2023-03-19T11:34:02.386Z,3.05
2023-03-19T11:36:44.149Z,3.00
2023-03-19T11:39:28.528Z,2.83
2023-03-19T11:42:36.935Z,3.05
2023-03-19T11:45:20.696Z,2.90
2023-03-19T11:48:12.361Z,3.15
2023-03-19T11:50:52.322Z,3.13
2023-03-19T11:53:29.531Z,3.13
2023-03-19T11:56:10.809Z,3.47
2023-03-19T11:59:14.466Z,2.88
2023-03-19T12:02:32.973Z,3.88
2023-03-19T12:05:32.952Z,2.92
2023-03-19T12:08:20.885Z,2.95
2023-03-19T12:11:05.142Z,2.90
2023-03-19T12:14:00.892Z,3.22
2023-03-19T12:16:51.111Z,2.95
2023-03-19T12:19:43.068Z,3.88
2023-03-19T12:22:30.259Z,2.80
2023-03-19T12:25:27.211Z,3.92
2023-03-19T12:28:11.803Z,2.97
2023-03-19T12:30:51.448Z,4.70
2023-03-19T12:33:41.153Z,3.20
2023-03-19T12:36:22.264Z,3.05
2023-03-19T12:39:02.969Z,2.72
2023-03-19T12:41:43.809Z,3.28
2023-03-19T12:44:24.472Z,2.72
2023-03-19T12:47:02.275Z,3.80
2023-03-19T12:49:40.466Z,2.60
2023-03-19T12:52:22.409Z,3.72
2023-03-19T12:55:04.614Z,3.38
2023-03-19T12:57:44.917Z,2.95
2023-03-19T13:00:27.323Z,2.97
2023-03-19T13:03:08.654Z,2.83
2023-03-19T13:05:46.227Z,2.53
2023-03-19T13:08:29.013Z,3.63
2023-03-19T13:11:07.765Z,3.50
2023-03-19T13:13:49.514Z,3.10
2023-03-19T13:16:37.605Z,2.88
2023-03-19T13:19:20.242Z,3.92
2023-03-19T13:21:56.774Z,4.25
2023-03-19T13:24:32.793Z,2.58
2023-03-19T13:27:10.742Z,3.00
2023-03-19T13:30:01.858Z,2.80
2023-03-19T13:32:42.404Z,3.58
2023-03-19T13:35:38.912Z,3.55
2023-03-19T13:38:22.678Z,3.30
2023-03-19T13:40:57.579Z,3.25
2023-03-19T13:43:56.438Z,3.25
2023-03-19T13:46:40.839Z,3.85
2023-03-19T13:49:29.648Z,3.05
2023-03-19T13:52:48.393Z,2.72
2023-03-19T13:55:34.377Z,3.00
2023-03-19T13:58:38.768Z,2.85
2023-03-19T14:01:36.696Z,2.90
2023-03-19T14:04:22.293Z,3.25
2023-03-19T14:06:58.427Z,3.40
2023-03-19T14:09:39.987Z,3.20
2023-03-19T14:12:26.722Z,3.40
2023-03-19T14:15:04.799Z,2.80
2023-03-19T14:17:42.583Z,2.88
2023-03-19T14:20:35.457Z,3.65
2023-03-19T14:23:38.524Z,3.67
2023-03-19T14:26:20.491Z,3.55
2023-03-19T14:29:03.780Z,3.30
2023-03-19T14:31:45.884Z,2.80
2023-03-19T14:34:26.005Z,2.92
2023-03-19T14:37:04.322Z,2.92
2023-03-19T14:39:43.142Z,3.63
2023-03-19T14:42:22.336Z,3.47
2023-03-19T14:45:44.855Z,3.42
2023-03-19T14:49:13.954Z,3.22
2023-03-19T14:52:05.889Z,3.28
2023-03-19T14:54:45.674Z,3.20
2023-03-19T14:57:21.266Z,3.22
2023-03-19T14:59:55.719Z,2.78
2023-03-19T15:02:37.907Z,4.25
2023-03-19T15:05:18.644Z,3.83
2023-03-19T15:07:57.988Z,3.10
2023-03-19T15:10:40.799Z,3.10
2023-03-19T15:13:29.263Z,3.53
2023-03-19T15:16:20.937Z,3.03
2023-03-19T15:18:54.421Z,3.67
2023-03-19T15:21:28.728Z,2.92
2023-03-19T15:24:04.648Z,3.38
2023-03-19T15:26:39.398Z,3.70
2023-03-19T15:29:13.629Z,2.83
2023-03-19T15:32:02.504Z,3.53
2023-03-19T15:34:39.461Z,3.42
2023-03-19T15:37:15.420Z,3.30
2023-03-19T15:39:53.354Z,2.90
2023-03-19T15:42:30.348Z,3.58
2023-03-19T15:45:09.458Z,3.20
2023-03-19T15:47:48.047Z,2.72
2023-03-19T15:50:25.096Z,3.40
2023-03-19T15:53:02.037Z,6.63
2023-03-19T15:55:37.780Z,3.55
2023-03-19T15:58:17.803Z,4.38
2023-03-19T16:00:54.066Z,4.85
2023-03-19T16:03:31.115Z,4.75
2023-03-19T16:06:07.020Z,4.85
2023-03-19T16:08:48.882Z,4.22
2023-03-19T16:11:31.524Z,4.15
2023-03-19T16:14:13.172Z,4.25
2023-03-19T16:16:48.875Z,31.95
2023-03-19T16:19:34.874Z,4.82
2023-03-19T16:22:15.602Z,4.97
2023-03-19T16:24:50.222Z,3.95
2023-03-19T16:27:35.923Z,3.58
2023-03-19T16:30:21.435Z,3.63
2023-03-19T16:33:01.962Z,3.33
2023-03-19T16:35:36.696Z,3.78
2023-03-19T16:38:15.473Z,3.95
2023-03-19T16:40:50.096Z,6.78
2023-03-19T16:43:25.881Z,5.18
2023-03-19T16:46:08.421Z,6.05
2023-03-19T16:48:41.696Z,5.32
2023-03-19T16:51:18.413Z,4.00
2023-03-19T16:53:51.734Z,4.35
2023-03-19T16:56:24.875Z,4.07
2023-03-19T16:59:02.723Z,4.45
2023-03-19T17:01:35.847Z,8.57
2023-03-19T17:04:17.415Z,13.35
2023-03-19T17:06:50.761Z,9.90
2023-03-19T17:09:24.002Z,7.70
2023-03-19T17:11:57.766Z,5.95
2023-03-19T17:14:33.922Z,7.93
2023-03-19T17:17:15.875Z,6.82
2023-03-19T17:19:49.465Z,9.25
2023-03-19T17:22:23.324Z,8.50
2023-03-19T17:24:56.568Z,7.72
2023-03-19T17:27:29.615Z,7.85
2023-03-19T17:30:04.395Z,8.20
2023-03-19T17:32:39.962Z,7.78
2023-03-19T17:35:17.468Z,7.97
2023-03-19T17:37:51.465Z,7.18
2023-03-19T17:40:27.626Z,12.13
2023-03-19T17:43:01.110Z,14.10
2023-03-19T17:45:35.686Z,15.32
2023-03-19T17:48:19.918Z,8.60
2023-03-19T17:50:55.666Z,6.28
2023-03-19T17:53:29.886Z,6.00
2023-03-19T17:56:03.230Z,8.50
2023-03-19T17:58:36.270Z,11.13
2023-03-19T18:01:16.254Z,9.57
2023-03-19T18:03:51.011Z,10.43
2023-03-19T18:06:26.328Z,9.90
2023-03-19T18:09:00.807Z,8.77
2023-03-19T18:11:33.931Z,8.02
2023-03-19T18:14:07.037Z,8.02
2023-03-19T18:16:42.145Z,8.00
2023-03-19T18:19:22.123Z,8.60
2023-03-19T18:21:55.241Z,11.45
2023-03-19T18:24:28.747Z,12.60
2023-03-19T18:27:01.853Z,12.43
2023-03-19T18:29:35.008Z,12.20
2023-03-19T18:32:15.848Z,10.90
2023-03-19T18:34:48.931Z,11.32
2023-03-19T18:37:23.456Z,10.50
2023-03-19T18:39:56.542Z,10.52
2023-03-19T18:42:29.825Z,9.90
2023-03-19T18:45:02.923Z,10.82
2023-03-19T18:47:37.491Z,11.07
2023-03-19T18:50:19.041Z,12.32
2023-03-19T18:52:54.347Z,10.60
2023-03-19T18:55:30.875Z,10.43
2023-03-19T18:58:04.364Z,9.20
2023-03-19T19:00:38.760Z,9.73
2023-03-19T19:03:17.111Z,12.85
2023-03-19T19:05:53.664Z,11.32
2023-03-19T19:08:29.810Z,13.50
2023-03-19T19:11:05.578Z,14.50
2023-03-19T19:13:55.188Z,15.63
2023-03-19T19:16:35.510Z,14.20
2023-03-19T19:19:18.558Z,13.32
2023-03-19T19:21:52.225Z,13.77
2023-03-19T19:24:25.356Z,18.33
2023-03-19T19:27:01.567Z,15.13
2023-03-19T19:29:35.302Z,11.80
2023-03-19T19:32:20.847Z,10.32
2023-03-19T19:34:55.453Z,10.80
2023-03-19T19:37:28.709Z,11.40
2023-03-19T19:40:01.749Z,12.80
2023-03-19T19:42:35.841Z,12.82
2023-03-19T19:45:37.930Z,11.65
2023-03-19T19:48:16.723Z,11.63
2023-03-19T19:50:52.048Z,10.57
2023-03-19T19:54:07.495Z,10.52
2023-03-19T19:56:41.330Z,9.57
2023-03-19T19:59:16.394Z,9.15
2023-03-19T20:01:49.549Z,9.05
2023-03-19T20:04:22.687Z,8.07
2023-03-19T20:06:57.160Z,8.77
2023-03-19T20:09:30.244Z,8.80
2023-03-19T20:12:03.834Z,9.27
2023-03-19T20:14:37.281Z,10.60
2023-03-19T20:17:15.350Z,12.90
2023-03-19T20:19:49.180Z,11.40
2023-03-19T20:22:23.678Z,9.07
2023-03-19T20:24:57.950Z,9.27
2023-03-19T20:27:34.124Z,8.82
2023-03-19T20:30:17.654Z,8.70
2023-03-19T20:32:53.019Z,9.93
2023-03-19T20:35:28.872Z,8.98
2023-03-19T20:38:05.788Z,9.25
2023-03-19T20:40:44.110Z,10.90
2023-03-19T20:43:37.429Z,10.07
2023-03-19T20:46:12.502Z,7.90
2023-03-19T20:48:45.801Z,7.60
2023-03-19T20:51:23.081Z,7.20
2023-03-19T20:53:58.813Z,7.20
2023-03-19T20:56:32.031Z,6.85
2023-03-19T20:59:05.692Z,7.18
2023-03-19T21:01:38.781Z,10.35
2023-03-19T21:04:20.876Z,9.80
2023-03-19T21:06:54.493Z,8.83
2023-03-19T21:09:29.075Z,9.35
2023-03-19T21:12:02.280Z,10.10
2023-03-19T21:14:35.402Z,9.53
2023-03-19T21:17:08.438Z,9.40
2023-03-19T21:19:42.745Z,9.20
2023-03-19T21:22:22.120Z,9.47
2023-03-19T21:25:04.795Z,10.80
2023-03-19T21:27:38.439Z,9.90
2023-03-19T21:30:16.531Z,9.00
2023-03-19T21:32:51.521Z,7.73
2023-03-19T21:35:26.490Z,7.57
2023-03-19T21:37:59.547Z,6.23
2023-03-19T21:40:34.147Z,7.47
2023-03-19T21:43:07.595Z,7.82
2023-03-19T21:45:41.286Z,8.40
2023-03-19T21:48:25.214Z,7.68
2023-03-19T21:50:59.230Z,6.50
2023-03-19T21:53:32.364Z,6.63
2023-03-19T21:56:18.905Z,6.87
2023-03-19T21:58:53.471Z,7.85
2023-03-19T22:01:27.578Z,7.15
2023-03-19T22:04:00.891Z,6.80
2023-03-19T22:06:34.094Z,7.00
2023-03-19T22:09:07.543Z,7.53
2023-03-19T22:11:42.605Z,7.70
2023-03-19T22:14:19.095Z,7.93
2023-03-19T22:16:55.472Z,6.85
2023-03-19T22:19:29.170Z,7.10
2023-03-19T22:22:02.274Z,8.07
2023-03-19T22:24:35.290Z,8.77
2023-03-19T22:27:16.929Z,8.80
2023-03-19T22:29:50.244Z,8.32
2023-03-19T22:32:23.259Z,8.27
2023-03-19T22:34:56.418Z,9.50
2023-03-19T22:37:31.576Z,8.17
2023-03-19T22:40:05.135Z,9.10
2023-03-19T22:42:39.648Z,8.57
2023-03-19T22:45:27.038Z,9.30
2023-03-19T22:48:01.754Z,8.43
2023-03-19T22:50:34.837Z,8.93
2023-03-19T22:53:22.271Z,8.20
2023-03-19T22:55:55.545Z,9.00
2023-03-19T22:58:30.427Z,8.35
2023-03-19T23:01:03.569Z,8.63
2023-03-19T23:03:36.996Z,8.77
2023-03-19T23:06:29.235Z,8.10
2023-03-19T23:09:03.451Z,8.23
2023-03-19T23:11:39.369Z,8.93
2023-03-19T23:14:28.033Z,8.83
2023-03-19T23:17:07.340Z,8.27
2023-03-19T23:19:40.385Z,9.77
2023-03-19T23:22:17.388Z,9.30
2023-03-19T23:24:50.624Z,9.25
2023-03-19T23:27:26.640Z,11.10
2023-03-19T23:30:01.130Z,10.85
2023-03-19T23:32:34.252Z,10.27
2023-03-19T23:35:16.207Z,11.20
2023-03-19T23:37:49.405Z,10.83
2023-03-19T23:40:24.520Z,10.90
2023-03-19T23:42:59.127Z,10.90
2023-03-19T23:45:39.993Z,10.52
2023-03-19T23:48:16.814Z,10.87
2023-03-19T23:50:50.607Z,10.53
2023-03-19T23:53:27.183Z,11.73
2023-03-19T23:56:03.463Z,11.60
2023-03-19T23:58:42.885Z,11.10
